createdAt,value
2022-12-25T00:03:18.203Z,83.67
2022-12-25T00:08:20.436Z,84.07
2022-12-25T00:13:22.618Z,84.39
2022-12-25T00:18:25.067Z,83.89
2022-12-25T00:23:27.898Z,83.70
2022-12-25T00:28:30.482Z,83.51
2022-12-25T00:33:35.766Z,81.83
2022-12-25T00:38:39.812Z,80.71
2022-12-25T00:43:42.329Z,80.24
2022-12-25T00:48:47.598Z,79.75
2022-12-25T00:53:49.736Z,80.15
2022-12-25T00:58:51.892Z,80.33
2022-12-25T01:03:55.007Z,80.96
2022-12-25T01:09:17.827Z,81.73
2022-12-25T01:14:19.929Z,82.02
2022-12-25T01:19:22.066Z,82.37
2022-12-25T01:24:24.265Z,82.62
2022-12-25T01:29:26.444Z,82.95
2022-12-25T01:34:28.796Z,83.19
2022-12-25T01:39:31.494Z,84.62
2022-12-25T01:44:36.371Z,85.01
2022-12-25T01:49:40.870Z,85.22
2022-12-25T01:54:52.727Z,84.07
2022-12-25T01:59:57.701Z,84.97
2022-12-25T02:05:08.442Z,84.00
2022-12-25T02:10:12.912Z,84.32
2022-12-25T02:15:20.847Z,84.38
2022-12-25T02:20:55.904Z,84.60
2022-12-25T02:26:35.544Z,85.05
2022-12-25T02:31:59.429Z,85.73
2022-12-25T02:37:12.502Z,85.67
2022-12-25T02:42:45.412Z,85.37
2022-12-25T02:48:06.175Z,85.43
2022-12-25T02:53:45.491Z,85.30
2022-12-25T02:59:07.386Z,86.12
2022-12-25T03:04:32.112Z,84.57
2022-12-25T03:10:00.852Z,85.71
2022-12-25T03:15:24.549Z,84.52
2022-12-25T03:20:45.677Z,84.41
2022-12-25T03:26:06.510Z,85.33
2022-12-25T03:31:21.501Z,85.44
2022-12-25T03:37:00.034Z,85.73
2022-12-25T03:42:24.287Z,86.45
2022-12-25T03:47:51.958Z,86.85
2022-12-25T03:53:15.037Z,87.16
2022-12-25T03:58:41.167Z,87.35
2022-12-25T04:04:02.303Z,87.19
2022-12-25T04:09:23.315Z,87.49
2022-12-25T04:14:44.216Z,87.38
2022-12-25T04:20:04.799Z,87.26
2022-12-25T04:25:26.061Z,86.94
2022-12-25T04:31:03.503Z,86.83
2022-12-25T04:36:12.526Z,86.95
2022-12-25T04:41:14.872Z,86.39
2022-12-25T04:46:17.052Z,86.36
2022-12-25T04:51:21.695Z,86.62
2022-12-25T04:56:23.905Z,86.31
2022-12-25T05:01:26.161Z,86.38
2022-12-25T05:06:28.452Z,87.01
2022-12-25T05:11:30.693Z,87.93
2022-12-25T05:16:32.853Z,88.93
2022-12-25T05:21:35.049Z,89.51
2022-12-25T05:26:37.178Z,90.14
2022-12-25T05:31:39.377Z,90.53
2022-12-25T05:36:41.561Z,90.94
2022-12-25T05:41:43.783Z,90.92
2022-12-25T05:46:46.051Z,90.39
2022-12-25T05:51:48.313Z,91.00
2022-12-25T05:56:50.560Z,91.08
2022-12-25T06:01:52.765Z,90.97
2022-12-25T06:06:54.950Z,91.27
2022-12-25T06:11:57.138Z,91.42
2022-12-25T06:16:59.330Z,91.19
2022-12-25T06:22:01.582Z,91.76
2022-12-25T06:27:03.877Z,91.77
2022-12-25T06:32:06.094Z,91.91
2022-12-25T06:37:08.360Z,92.08
2022-12-25T06:42:10.544Z,92.12
2022-12-25T06:47:13.435Z,92.23
2022-12-25T06:52:15.604Z,92.05
2022-12-25T06:57:19.104Z,92.17
2022-12-25T07:02:23.363Z,92.31
2022-12-25T07:07:25.645Z,92.27
2022-12-25T07:12:27.901Z,92.68
2022-12-25T07:17:30.045Z,92.70
2022-12-25T07:22:32.348Z,92.10
2022-12-25T07:27:34.594Z,91.18
2022-12-25T07:32:36.747Z,91.06
2022-12-25T07:37:39.214Z,90.84
2022-12-25T07:42:41.342Z,90.78
2022-12-25T07:47:43.755Z,91.58
2022-12-25T07:52:47.070Z,91.36
2022-12-25T07:57:49.273Z,90.83
2022-12-25T08:02:51.693Z,90.63
2022-12-25T08:07:57.689Z,89.12
2022-12-25T08:12:59.953Z,87.95
2022-12-25T08:18:02.142Z,87.04
2022-12-25T08:23:05.096Z,87.65
2022-12-25T08:28:07.390Z,86.54
2022-12-25T08:33:10.053Z,85.36
2022-12-25T08:38:12.537Z,84.71
2022-12-25T08:43:14.745Z,85.55
2022-12-25T08:48:16.937Z,85.62
2022-12-25T08:53:20.269Z,85.12
2022-12-25T08:58:25.634Z,83.53
2022-12-25T09:03:28.108Z,83.90
2022-12-25T09:08:30.381Z,83.19
2022-12-25T09:13:32.919Z,82.28
2022-12-25T09:18:35.618Z,80.90
2022-12-25T09:23:40.824Z,80.85
2022-12-25T09:28:50.176Z,79.86
2022-12-25T09:33:58.087Z,79.81
2022-12-25T09:39:00.317Z,78.66
2022-12-25T09:44:15.244Z,74.86
2022-12-25T09:49:49.262Z,72.74
2022-12-25T09:55:12.475Z,71.64
2022-12-25T10:00:24.041Z,70.19
2022-12-25T10:05:58.643Z,66.46
2022-12-25T10:11:06.673Z,46.79
2022-12-25T10:16:52.331Z,36.17
2022-12-25T10:22:03.203Z,34.75
2022-12-25T10:27:30.013Z,41.67
2022-12-25T10:32:33.195Z,44.77
2022-12-25T10:37:35.433Z,37.79
2022-12-25T10:42:43.984Z,51.21
2022-12-25T10:47:58.558Z,48.34
2022-12-25T10:58:44.153Z,33.47
2022-12-25T11:03:53.760Z,25.90
2022-12-25T11:09:08.655Z,23.87
2022-12-25T11:14:29.290Z,23.23
2022-12-25T11:19:41.793Z,23.23
2022-12-25T11:24:45.285Z,22.50
2022-12-25T11:29:53.955Z,19.77
2022-12-25T11:34:57.994Z,20.82
2022-12-25T11:40:00.385Z,18.28
2022-12-25T11:45:17.529Z,18.05
2022-12-25T11:50:25.833Z,18.87
2022-12-25T11:55:33.660Z,22.46
2022-12-25T12:00:36.846Z,21.77
2022-12-25T12:05:45.404Z,23.62
2022-12-25T12:10:56.518Z,25.58
2022-12-25T12:15:58.902Z,30.36
2022-12-25T12:21:16.486Z,31.95
2022-12-25T12:26:30.757Z,32.21
2022-12-25T12:31:45.708Z,34.11
2022-12-25T12:36:49.981Z,32.27
2022-12-25T12:41:52.871Z,33.05
2022-12-25T12:46:57.347Z,42.09
2022-12-25T12:52:22.515Z,46.84
2022-12-25T12:57:32.754Z,48.71
2022-12-25T13:02:41.042Z,47.05
2022-12-25T13:07:58.273Z,49.50
2022-12-25T13:13:12.580Z,51.20
2022-12-25T13:18:15.416Z,51.90
2022-12-25T13:23:30.332Z,53.19
2022-12-25T13:28:35.451Z,52.93
2022-12-25T13:33:38.461Z,53.03
2022-12-25T13:38:48.024Z,53.84
2022-12-25T13:43:58.580Z,54.80
2022-12-25T13:49:01.506Z,55.63
2022-12-25T13:54:07.395Z,55.88
2022-12-25T13:59:16.315Z,57.52
2022-12-25T14:04:23.695Z,58.74
2022-12-25T14:09:26.115Z,59.99
2022-12-25T14:14:29.727Z,59.83
2022-12-25T14:19:34.318Z,58.57
2022-12-25T14:24:39.514Z,62.48
2022-12-25T14:29:44.727Z,63.50
2022-12-25T14:34:50.980Z,64.82
2022-12-25T14:40:05.334Z,66.01
2022-12-25T14:45:30.708Z,66.60
2022-12-25T14:50:41.112Z,67.85
2022-12-25T14:55:48.208Z,68.04
2022-12-25T15:01:01.903Z,67.94
2022-12-25T15:06:06.438Z,68.40
2022-12-25T15:11:09.036Z,68.85
2022-12-25T15:16:22.376Z,70.65
2022-12-25T15:21:44.590Z,73.08
2022-12-25T15:26:47.013Z,74.35
2022-12-25T15:31:49.928Z,75.85
2022-12-25T15:36:53.008Z,76.57
2022-12-25T15:47:37.293Z,75.64
2022-12-25T15:52:39.590Z,75.31
2022-12-25T15:57:43.730Z,75.92
2022-12-25T16:02:48.954Z,77.58
2022-12-25T16:07:51.418Z,77.25
2022-12-25T16:12:53.685Z,76.67
2022-12-25T16:17:58.320Z,76.45
2022-12-25T16:23:00.564Z,75.26
2022-12-25T16:28:03.789Z,74.52
2022-12-25T16:33:06.857Z,74.04
2022-12-25T16:38:09.239Z,74.10
2022-12-25T16:43:11.478Z,73.55
2022-12-25T16:48:13.978Z,73.81
2022-12-25T16:53:16.479Z,74.03
2022-12-25T16:58:18.681Z,74.07
2022-12-25T17:03:21.571Z,74.31
2022-12-25T17:08:23.789Z,74.58
2022-12-25T17:13:26.054Z,74.59
2022-12-25T17:18:29.415Z,74.92
2022-12-25T17:23:31.640Z,74.77
2022-12-25T17:28:34.861Z,74.47
2022-12-25T17:33:38.834Z,73.46
2022-12-25T17:38:41.412Z,72.30
2022-12-25T17:43:45.810Z,71.94
2022-12-25T17:48:50.275Z,73.39
2022-12-25T17:53:56.685Z,74.28
2022-12-25T17:59:03.606Z,75.91
2022-12-25T18:04:07.182Z,75.48
2022-12-25T18:09:11.347Z,75.56
2022-12-25T18:14:18.358Z,76.14
2022-12-25T18:19:20.925Z,76.44
2022-12-25T18:24:23.148Z,77.05
2022-12-25T18:29:25.745Z,78.55
2022-12-25T18:34:28.078Z,77.19
2022-12-25T18:39:31.948Z,75.47
2022-12-25T18:44:34.583Z,75.56
2022-12-25T18:49:38.405Z,75.54
2022-12-25T18:54:41.062Z,75.55
2022-12-25T18:59:43.544Z,74.73
2022-12-25T19:04:45.925Z,74.31
2022-12-25T19:09:49.091Z,73.74
2022-12-25T19:14:51.827Z,75.03
2022-12-25T19:19:54.144Z,72.80
2022-12-25T19:24:59.293Z,72.96
2022-12-25T19:30:05.496Z,73.24
2022-12-25T19:35:08.405Z,73.35
2022-12-25T19:40:11.580Z,73.51
2022-12-25T19:45:14.566Z,73.56
2022-12-25T19:50:16.900Z,73.52
2022-12-25T19:55:20.484Z,72.90
2022-12-25T20:00:22.790Z,73.37
2022-12-25T20:05:24.999Z,72.70
2022-12-25T20:10:27.382Z,71.96
2022-12-25T20:15:29.665Z,71.66
2022-12-25T20:20:32.285Z,71.64
2022-12-25T20:25:44.545Z,71.62
2022-12-25T20:30:46.899Z,71.20
2022-12-25T20:35:50.292Z,70.91
2022-12-25T20:46:30.965Z,71.21
2022-12-25T20:51:33.626Z,71.75
2022-12-25T20:56:36.917Z,72.05
2022-12-25T21:01:39.168Z,72.09
2022-12-25T21:06:41.599Z,72.07
2022-12-25T21:11:43.870Z,72.07
2022-12-25T21:16:46.278Z,72.06
2022-12-25T21:21:51.819Z,71.93
2022-12-25T21:26:54.106Z,72.01
2022-12-25T21:32:14.969Z,72.05
2022-12-25T21:37:17.464Z,74.91
2022-12-25T21:42:19.672Z,76.59
2022-12-25T21:47:59.688Z,74.05
2022-12-25T21:52:52.653Z,74.42
2022-12-25T21:58:02.351Z,70.52
2022-12-25T22:03:35.649Z,70.64
2022-12-25T22:09:52.083Z,70.93
2022-12-25T22:15:35.845Z,71.33
2022-12-25T22:20:50.501Z,71.32
2022-12-25T22:25:53.027Z,72.19
2022-12-25T22:31:04.851Z,72.77
2022-12-25T22:36:57.090Z,71.67
2022-12-25T22:42:31.951Z,71.78
2022-12-25T22:47:36.953Z,72.16
2022-12-25T22:53:48.296Z,71.95
2022-12-25T22:59:01.419Z,72.84
2022-12-25T23:04:04.270Z,72.68
2022-12-25T23:09:08.732Z,72.80
2022-12-25T23:14:33.271Z,72.76
2022-12-25T23:19:54.031Z,72.40
2022-12-25T23:25:16.056Z,72.44
2022-12-25T23:30:18.313Z,72.39
2022-12-25T23:35:20.582Z,72.90
2022-12-25T23:40:22.826Z,73.10
2022-12-25T23:45:24.942Z,73.15
2022-12-25T23:50:27.201Z,73.88
2022-12-25T23:55:29.345Z,74.45
